Other Surface Observations
Issued by NWS Great Falls, MT

Home | Current Version | Previous Version | Text Only | Print | Product List | Glossary On
Versions: 1 2 3 4 5 6 7 8 9 10 11 12 13 14 15 16 17 18 19 20 21 22 23 24 25 26 27 28 29 30 31 32 33 34 35 36 37 38 39 40 41 42 43 44 45 46 47 48 49 50
631
SXUS55 KTFX 010659
OSOTFX
AREA AWOS OBSERVATIONS
NATIONAL WEATHER SERVICE GREAT FALLS MT
1259 AM MDT SUN MAY 01 2016

METAR KPWD 010700Z AUTO 10006KT 10SM 08/M04 A3034 RMK PLENTYWOOD
METAR KPO1 010700Z AUTO 03006KT 10SM 04/M01 A3034 RMK POPLAR
METAR K1S3 010700Z AUTO 00000KT 10SM 05/01 A3031 RMK FORSYTH
METAR KS71 010700Z AUTO 00000KT 10SM 03/02 A3034 RMK CHINOOK
METAR K38S 010700Z AUTO 36005KT 10SM 06/02 A3032 RMK DEER LODGE
METAR K3U3 010700Z AUTO 07004KT 03/00 A3031 RMK ANACONDA
METAR K6S5 010700Z AUTO 00000KT 10SM 08/04 A3027 RMK HAMILTON
METAR KS59 010700Z AUTO 16003KT 10SM 07/03 A3030 RMK LIBBY
METAR K88M 010700Z AUTO 00000KT 10SM 04/00 A3031 RMK EUREKA



USA.gov is the U.S. government's official web portal to all federal, state and local government web resources and services.